sensor_id;sensor_type;location;lat;lon;timestamp;temperature;humidity
43049;DHT22;28673;44.412;11.918;2023-11-22T00:01:37;10.50;99.90
43049;DHT22;28673;44.412;11.918;2023-11-22T00:04:03;10.50;99.90
43049;DHT22;28673;44.412;11.918;2023-11-22T00:06:30;10.50;99.90
43049;DHT22;28673;44.412;11.918;2023-11-22T00:08:55;10.50;99.90
43049;DHT22;28673;44.412;11.918;2023-11-22T00:11:22;10.50;99.90
43049;DHT22;28673;44.412;11.918;2023-11-22T00:13:47;10.50;99.90
43049;DHT22;28673;44.412;11.918;2023-11-22T00:16:14;10.50;99.90
43049;DHT22;28673;44.412;11.918;2023-11-22T00:18:41;10.50;99.90
43049;DHT22;28673;44.412;11.918;2023-11-22T00:21:07;10.40;99.90
43049;DHT22;28673;44.412;11.918;2023-11-22T00:23:33;10.40;99.90
43049;DHT22;28673;44.412;11.918;2023-11-22T00:25:58;10.40;99.90
43049;DHT22;28673;44.412;11.918;2023-11-22T00:28:24;10.40;99.90
43049;DHT22;28673;44.412;11.918;2023-11-22T00:30:50;10.40;99.90
43049;DHT22;28673;44.412;11.918;2023-11-22T00:33:16;10.40;99.90
43049;DHT22;28673;44.412;11.918;2023-11-22T00:35:43;10.40;99.90
43049;DHT22;28673;44.412;11.918;2023-11-22T00:38:09;10.40;99.90
43049;DHT22;28673;44.412;11.918;2023-11-22T00:40:35;10.40;99.90
43049;DHT22;28673;44.412;11.918;2023-11-22T00:43:01;10.40;99.90
43049;DHT22;28673;44.412;11.918;2023-11-22T00:45:26;10.40;99.90
43049;DHT22;28673;44.412;11.918;2023-11-22T00:47:52;10.40;99.90
43049;DHT22;28673;44.412;11.918;2023-11-22T00:50:18;10.40;99.90
43049;DHT22;28673;44.412;11.918;2023-11-22T00:52:47;10.40;99.90
43049;DHT22;28673;44.412;11.918;2023-11-22T00:55:13;10.40;99.90
43049;DHT22;28673;44.412;11.918;2023-11-22T00:57:39;10.40;99.90
43049;DHT22;28673;44.412;11.918;2023-11-22T01:00:06;10.40;99.90
43049;DHT22;28673;44.412;11.918;2023-11-22T01:02:35;10.40;99.90
43049;DHT22;28673;44.412;11.918;2023-11-22T01:05:07;10.40;99.90
43049;DHT22;28673;44.412;11.918;2023-11-22T01:07:42;10.40;99.90
43049;DHT22;28673;44.412;11.918;2023-11-22T01:10:08;10.40;99.90
43049;DHT22;28673;44.412;11.918;2023-11-22T01:12:34;10.40;99.90
43049;DHT22;28673;44.412;11.918;2023-11-22T01:15:00;10.40;99.90
43049;DHT22;28673;44.412;11.918;2023-11-22T01:17:26;10.40;99.90
43049;DHT22;28673;44.412;11.918;2023-11-22T01:19:52;10.40;99.90
43049;DHT22;28673;44.412;11.918;2023-11-22T01:22:17;10.40;99.90
43049;DHT22;28673;44.412;11.918;2023-11-22T01:24:43;10.40;99.90
43049;DHT22;28673;44.412;11.918;2023-11-22T01:27:09;10.40;99.90
43049;DHT22;28673;44.412;11.918;2023-11-22T01:29:35;10.40;99.90
43049;DHT22;28673;44.412;11.918;2023-11-22T01:32:01;10.40;99.90
43049;DHT22;28673;44.412;11.918;2023-11-22T01:34:28;10.40;99.90
43049;DHT22;28673;44.412;11.918;2023-11-22T01:36:55;10.40;99.90
43049;DHT22;28673;44.412;11.918;2023-11-22T01:39:21;10.40;99.90
43049;DHT22;28673;44.412;11.918;2023-11-22T01:41:47;10.40;99.90
43049;DHT22;28673;44.412;11.918;2023-11-22T01:44:15;10.40;99.90
43049;DHT22;28673;44.412;11.918;2023-11-22T01:46:42;10.40;99.90
43049;DHT22;28673;44.412;11.918;2023-11-22T01:49:10;10.40;99.90
43049;DHT22;28673;44.412;11.918;2023-11-22T01:51:39;10.40;99.90
43049;DHT22;28673;44.412;11.918;2023-11-22T01:54:07;10.40;99.90
43049;DHT22;28673;44.412;11.918;2023-11-22T01:56:35;10.40;99.90
43049;DHT22;28673;44.412;11.918;2023-11-22T01:59:04;10.40;99.90
43049;DHT22;28673;44.412;11.918;2023-11-22T02:01:30;10.40;99.90
43049;DHT22;28673;44.412;11.918;2023-11-22T02:03:57;10.40;99.90
43049;DHT22;28673;44.412;11.918;2023-11-22T02:06:23;10.40;99.90
43049;DHT22;28673;44.412;11.918;2023-11-22T02:08:50;10.40;99.90
43049;DHT22;28673;44.412;11.918;2023-11-22T02:11:19;10.30;99.90
43049;DHT22;28673;44.412;11.918;2023-11-22T02:13:48;10.40;99.90
43049;DHT22;28673;44.412;11.918;2023-11-22T02:16:16;10.40;99.90
43049;DHT22;28673;44.412;11.918;2023-11-22T02:18:44;10.40;99.90
43049;DHT22;28673;44.412;11.918;2023-11-22T02:21:10;10.40;99.90
43049;DHT22;28673;44.412;11.918;2023-11-22T02:23:36;10.30;99.90
43049;DHT22;28673;44.412;11.918;2023-11-22T02:26:02;10.30;99.90
43049;DHT22;28673;44.412;11.918;2023-11-22T02:28:28;10.30;99.90
43049;DHT22;28673;44.412;11.918;2023-11-22T02:30:54;10.30;99.90
43049;DHT22;28673;44.412;11.918;2023-11-22T02:33:21;10.40;99.90
43049;DHT22;28673;44.412;11.918;2023-11-22T02:35:47;10.30;99.90
43049;DHT22;28673;44.412;11.918;2023-11-22T02:38:13;10.30;99.90
43049;DHT22;28673;44.412;11.918;2023-11-22T02:40:39;10.30;99.90
43049;DHT22;28673;44.412;11.918;2023-11-22T02:43:05;10.30;99.90
43049;DHT22;28673;44.412;11.918;2023-11-22T02:45:34;10.30;99.90
43049;DHT22;28673;44.412;11.918;2023-11-22T02:48:00;10.30;99.90
43049;DHT22;28673;44.412;11.918;2023-11-22T02:50:30;10.30;99.90
43049;DHT22;28673;44.412;11.918;2023-11-22T02:52:58;10.30;99.90
43049;DHT22;28673;44.412;11.918;2023-11-22T02:55:25;10.30;99.90
43049;DHT22;28673;44.412;11.918;2023-11-22T02:57:51;10.30;99.90
43049;DHT22;28673;44.412;11.918;2023-11-22T03:00:17;10.30;99.90
43049;DHT22;28673;44.412;11.918;2023-11-22T03:02:45;10.30;99.90
43049;DHT22;28673;44.412;11.918;2023-11-22T03:05:13;10.30;99.90
43049;DHT22;28673;44.412;11.918;2023-11-22T03:07:43;10.30;99.90
43049;DHT22;28673;44.412;11.918;2023-11-22T03:10:09;10.30;99.90
43049;DHT22;28673;44.412;11.918;2023-11-22T03:12:36;10.30;99.90
43049;DHT22;28673;44.412;11.918;2023-11-22T03:15:03;10.30;99.90
43049;DHT22;28673;44.412;11.918;2023-11-22T03:17:29;10.30;99.90
43049;DHT22;28673;44.412;11.918;2023-11-22T03:19:56;10.30;99.90
43049;DHT22;28673;44.412;11.918;2023-11-22T03:22:28;10.30;99.90
43049;DHT22;28673;44.412;11.918;2023-11-22T03:25:02;10.30;99.90
43049;DHT22;28673;44.412;11.918;2023-11-22T03:27:29;10.30;99.90
43049;DHT22;28673;44.412;11.918;2023-11-22T03:29:55;10.30;99.90
43049;DHT22;28673;44.412;11.918;2023-11-22T03:32:22;10.30;99.90
43049;DHT22;28673;44.412;11.918;2023-11-22T03:34:47;10.30;99.90
43049;DHT22;28673;44.412;11.918;2023-11-22T03:37:13;10.30;99.90
43049;DHT22;28673;44.412;11.918;2023-11-22T03:39:39;10.30;99.90
43049;DHT22;28673;44.412;11.918;2023-11-22T03:42:07;10.30;99.90
43049;DHT22;28673;44.412;11.918;2023-11-22T03:44:33;10.20;99.90
43049;DHT22;28673;44.412;11.918;2023-11-22T03:46:59;10.20;99.90
43049;DHT22;28673;44.412;11.918;2023-11-22T03:49:25;10.20;99.90
43049;DHT22;28673;44.412;11.918;2023-11-22T03:51:50;10.20;99.90
43049;DHT22;28673;44.412;11.918;2023-11-22T03:54:16;10.20;99.90
43049;DHT22;28673;44.412;11.918;2023-11-22T03:56:42;10.20;99.90
43049;DHT22;28673;44.412;11.918;2023-11-22T03:59:08;10.10;99.90
43049;DHT22;28673;44.412;11.918;2023-11-22T04:01:33;10.10;99.90
43049;DHT22;28673;44.412;11.918;2023-11-22T04:03:59;10.10;99.90
43049;DHT22;28673;44.412;11.918;2023-11-22T04:06:25;10.10;99.90
43049;DHT22;28673;44.412;11.918;2023-11-22T04:08:51;10.10;99.90
43049;DHT22;28673;44.412;11.918;2023-11-22T04:11:19;10.10;99.90
43049;DHT22;28673;44.412;11.918;2023-11-22T04:13:45;10.10;99.90
43049;DHT22;28673;44.412;11.918;2023-11-22T04:16:10;10.00;99.90
43049;DHT22;28673;44.412;11.918;2023-11-22T04:18:43;10.00;99.90
43049;DHT22;28673;44.412;11.918;2023-11-22T04:21:09;10.00;99.90
43049;DHT22;28673;44.412;11.918;2023-11-22T04:23:35;10.00;99.90
43049;DHT22;28673;44.412;11.918;2023-11-22T04:26:02;9.90;99.90
43049;DHT22;28673;44.412;11.918;2023-11-22T04:28:28;9.90;99.90
43049;DHT22;28673;44.412;11.918;2023-11-22T04:30:55;9.90;99.90
43049;DHT22;28673;44.412;11.918;2023-11-22T04:33:21;9.90;99.90
43049;DHT22;28673;44.412;11.918;2023-11-22T04:35:50;9.90;99.90
43049;DHT22;28673;44.412;11.918;2023-11-22T04:38:16;9.90;99.90
43049;DHT22;28673;44.412;11.918;2023-11-22T04:40:44;9.80;99.90
43049;DHT22;28673;44.412;11.918;2023-11-22T04:43:10;9.80;99.90
43049;DHT22;28673;44.412;11.918;2023-11-22T04:45:37;9.80;99.90
43049;DHT22;28673;44.412;11.918;2023-11-22T04:48:03;9.70;99.90
43049;DHT22;28673;44.412;11.918;2023-11-22T04:50:29;9.80;99.90
43049;DHT22;28673;44.412;11.918;2023-11-22T04:52:57;9.80;99.90
43049;DHT22;28673;44.412;11.918;2023-11-22T04:55:22;9.70;99.90
43049;DHT22;28673;44.412;11.918;2023-11-22T04:57:49;9.70;99.90
43049;DHT22;28673;44.412;11.918;2023-11-22T05:00:15;9.70;99.90
43049;DHT22;28673;44.412;11.918;2023-11-22T05:02:41;9.70;99.90
43049;DHT22;28673;44.412;11.918;2023-11-22T05:05:07;9.70;99.90
43049;DHT22;28673;44.412;11.918;2023-11-22T05:07:36;9.70;99.90
43049;DHT22;28673;44.412;11.918;2023-11-22T05:10:02;9.70;99.90
43049;DHT22;28673;44.412;11.918;2023-11-22T05:12:28;9.70;99.90
43049;DHT22;28673;44.412;11.918;2023-11-22T05:14:54;9.70;99.90
43049;DHT22;28673;44.412;11.918;2023-11-22T05:17:20;9.80;99.90
43049;DHT22;28673;44.412;11.918;2023-11-22T05:19:46;9.70;99.90
43049;DHT22;28673;44.412;11.918;2023-11-22T05:22:12;9.70;99.90
43049;DHT22;28673;44.412;11.918;2023-11-22T05:24:38;9.70;99.90
43049;DHT22;28673;44.412;11.918;2023-11-22T05:27:08;9.70;99.90
43049;DHT22;28673;44.412;11.918;2023-11-22T05:29:34;9.70;99.90
43049;DHT22;28673;44.412;11.918;2023-11-22T05:32:00;9.70;99.90
43049;DHT22;28673;44.412;11.918;2023-11-22T05:34:28;9.70;99.90
43049;DHT22;28673;44.412;11.918;2023-11-22T05:36:54;9.70;99.90
43049;DHT22;28673;44.412;11.918;2023-11-22T05:39:20;9.60;99.90
43049;DHT22;28673;44.412;11.918;2023-11-22T05:41:48;9.60;99.90
43049;DHT22;28673;44.412;11.918;2023-11-22T05:44:14;9.60;99.90
43049;DHT22;28673;44.412;11.918;2023-11-22T05:46:40;9.60;99.90
43049;DHT22;28673;44.412;11.918;2023-11-22T05:49:06;9.60;99.90
43049;DHT22;28673;44.412;11.918;2023-11-22T05:51:32;9.60;99.90
43049;DHT22;28673;44.412;11.918;2023-11-22T05:53:59;9.60;99.90
43049;DHT22;28673;44.412;11.918;2023-11-22T05:56:25;9.60;99.90
43049;DHT22;28673;44.412;11.918;2023-11-22T05:58:51;9.60;99.90
43049;DHT22;28673;44.412;11.918;2023-11-22T06:01:17;9.50;99.90
43049;DHT22;28673;44.412;11.918;2023-11-22T06:03:43;9.50;99.90
43049;DHT22;28673;44.412;11.918;2023-11-22T06:06:09;9.50;99.90
43049;DHT22;28673;44.412;11.918;2023-11-22T06:08:35;9.50;99.90
43049;DHT22;28673;44.412;11.918;2023-11-22T06:11:01;9.50;99.90
43049;DHT22;28673;44.412;11.918;2023-11-22T06:13:27;9.50;99.90
43049;DHT22;28673;44.412;11.918;2023-11-22T06:15:53;9.50;99.90
43049;DHT22;28673;44.412;11.918;2023-11-22T06:18:19;9.50;99.90
43049;DHT22;28673;44.412;11.918;2023-11-22T06:20:45;9.50;99.90
43049;DHT22;28673;44.412;11.918;2023-11-22T06:23:13;9.50;99.90
43049;DHT22;28673;44.412;11.918;2023-11-22T06:25:39;9.50;99.90
43049;DHT22;28673;44.412;11.918;2023-11-22T06:28:09;9.50;99.90
43049;DHT22;28673;44.412;11.918;2023-11-22T06:30:35;9.50;99.90
43049;DHT22;28673;44.412;11.918;2023-11-22T06:33:01;9.50;99.90
43049;DHT22;28673;44.412;11.918;2023-11-22T06:35:27;9.50;99.90
43049;DHT22;28673;44.412;11.918;2023-11-22T06:37:53;9.50;99.90
43049;DHT22;28673;44.412;11.918;2023-11-22T06:40:19;9.50;99.90
43049;DHT22;28673;44.412;11.918;2023-11-22T06:42:46;9.40;99.90
43049;DHT22;28673;44.412;11.918;2023-11-22T06:45:12;9.50;99.90
43049;DHT22;28673;44.412;11.918;2023-11-22T06:47:42;9.50;99.90
43049;DHT22;28673;44.412;11.918;2023-11-22T06:50:08;9.50;99.90
43049;DHT22;28673;44.412;11.918;2023-11-22T06:52:35;9.50;99.90
43049;DHT22;28673;44.412;11.918;2023-11-22T06:55:02;9.50;99.90
43049;DHT22;28673;44.412;11.918;2023-11-22T06:57:28;9.50;99.90
43049;DHT22;28673;44.412;11.918;2023-11-22T06:59:58;9.50;99.90
43049;DHT22;28673;44.412;11.918;2023-11-22T07:02:24;9.50;99.90
43049;DHT22;28673;44.412;11.918;2023-11-22T07:04:51;9.50;99.90
43049;DHT22;28673;44.412;11.918;2023-11-22T07:07:18;9.50;99.90
43049;DHT22;28673;44.412;11.918;2023-11-22T07:09:45;9.40;99.90
43049;DHT22;28673;44.412;11.918;2023-11-22T07:12:11;9.50;99.90
43049;DHT22;28673;44.412;11.918;2023-11-22T07:14:38;9.40;99.90
43049;DHT22;28673;44.412;11.918;2023-11-22T07:17:04;9.50;99.90
43049;DHT22;28673;44.412;11.918;2023-11-22T07:19:32;9.50;99.90
43049;DHT22;28673;44.412;11.918;2023-11-22T07:22:06;9.50;99.90
43049;DHT22;28673;44.412;11.918;2023-11-22T07:24:45;9.50;99.90
43049;DHT22;28673;44.412;11.918;2023-11-22T07:27:12;9.50;99.90
43049;DHT22;28673;44.412;11.918;2023-11-22T07:29:43;9.50;99.90
43049;DHT22;28673;44.412;11.918;2023-11-22T07:32:10;9.40;99.90
43049;DHT22;28673;44.412;11.918;2023-11-22T07:34:37;9.50;99.90
43049;DHT22;28673;44.412;11.918;2023-11-22T07:37:03;9.50;99.90
43049;DHT22;28673;44.412;11.918;2023-11-22T07:39:29;9.50;99.90
43049;DHT22;28673;44.412;11.918;2023-11-22T07:41:55;9.50;99.90
43049;DHT22;28673;44.412;11.918;2023-11-22T07:44:21;9.50;99.90
43049;DHT22;28673;44.412;11.918;2023-11-22T07:46:47;9.50;99.90
43049;DHT22;28673;44.412;11.918;2023-11-22T07:49:13;9.50;99.90
43049;DHT22;28673;44.412;11.918;2023-11-22T07:51:40;9.60;99.90
43049;DHT22;28673;44.412;11.918;2023-11-22T07:54:07;9.50;99.90
43049;DHT22;28673;44.412;11.918;2023-11-22T07:56:34;9.60;99.90
43049;DHT22;28673;44.412;11.918;2023-11-22T07:59:00;9.60;99.90
43049;DHT22;28673;44.412;11.918;2023-11-22T08:01:26;9.60;99.90
43049;DHT22;28673;44.412;11.918;2023-11-22T08:03:55;9.60;99.90
43049;DHT22;28673;44.412;11.918;2023-11-22T08:06:21;9.60;99.90
43049;DHT22;28673;44.412;11.918;2023-11-22T08:08:47;9.60;99.90
43049;DHT22;28673;44.412;11.918;2023-11-22T08:11:13;9.60;99.90
43049;DHT22;28673;44.412;11.918;2023-11-22T08:13:41;9.70;99.90
43049;DHT22;28673;44.412;11.918;2023-11-22T08:16:09;9.70;99.90
43049;DHT22;28673;44.412;11.918;2023-11-22T08:18:34;9.70;99.90
43049;DHT22;28673;44.412;11.918;2023-11-22T08:21:01;9.70;99.90
43049;DHT22;28673;44.412;11.918;2023-11-22T08:23:27;9.70;99.90
43049;DHT22;28673;44.412;11.918;2023-11-22T08:25:53;9.70;99.90
43049;DHT22;28673;44.412;11.918;2023-11-22T08:28:19;9.80;99.90
43049;DHT22;28673;44.412;11.918;2023-11-22T08:30:44;9.80;99.90
43049;DHT22;28673;44.412;11.918;2023-11-22T08:33:10;9.90;99.90
43049;DHT22;28673;44.412;11.918;2023-11-22T08:35:36;9.90;99.90
43049;DHT22;28673;44.412;11.918;2023-11-22T08:38:02;9.90;99.90
43049;DHT22;28673;44.412;11.918;2023-11-22T08:40:29;10.00;99.90
43049;DHT22;28673;44.412;11.918;2023-11-22T08:42:54;10.00;99.90
43049;DHT22;28673;44.412;11.918;2023-11-22T08:45:20;10.10;99.90
43049;DHT22;28673;44.412;11.918;2023-11-22T08:47:46;10.10;99.90
43049;DHT22;28673;44.412;11.918;2023-11-22T08:50:12;10.20;99.90
43049;DHT22;28673;44.412;11.918;2023-11-22T08:52:38;10.30;99.90
43049;DHT22;28673;44.412;11.918;2023-11-22T08:55:06;10.30;99.90
43049;DHT22;28673;44.412;11.918;2023-11-22T08:57:36;10.30;99.90
43049;DHT22;28673;44.412;11.918;2023-11-22T09:00:06;10.40;99.90
43049;DHT22;28673;44.412;11.918;2023-11-22T09:02:35;10.40;99.90
43049;DHT22;28673;44.412;11.918;2023-11-22T09:05:03;10.50;99.90
43049;DHT22;28673;44.412;11.918;2023-11-22T09:07:32;10.50;99.90
43049;DHT22;28673;44.412;11.918;2023-11-22T09:09:59;10.50;99.90
43049;DHT22;28673;44.412;11.918;2023-11-22T09:12:24;10.60;99.90
43049;DHT22;28673;44.412;11.918;2023-11-22T09:14:52;10.60;99.90
43049;DHT22;28673;44.412;11.918;2023-11-22T09:17:18;10.60;99.90
43049;DHT22;28673;44.412;11.918;2023-11-22T09:19:46;10.60;99.90
43049;DHT22;28673;44.412;11.918;2023-11-22T09:22:11;10.70;99.90
43049;DHT22;28673;44.412;11.918;2023-11-22T09:24:38;10.80;99.90
43049;DHT22;28673;44.412;11.918;2023-11-22T09:27:05;10.80;99.90
43049;DHT22;28673;44.412;11.918;2023-11-22T09:29:32;10.80;99.90
43049;DHT22;28673;44.412;11.918;2023-11-22T09:31:59;10.90;99.90
43049;DHT22;28673;44.412;11.918;2023-11-22T09:34:27;10.90;99.90
43049;DHT22;28673;44.412;11.918;2023-11-22T09:36:53;10.90;99.90
43049;DHT22;28673;44.412;11.918;2023-11-22T09:39:19;11.00;99.90
43049;DHT22;28673;44.412;11.918;2023-11-22T09:41:47;11.10;99.90
43049;DHT22;28673;44.412;11.918;2023-11-22T09:44:14;11.10;99.90
43049;DHT22;28673;44.412;11.918;2023-11-22T09:46:42;11.20;99.90
43049;DHT22;28673;44.412;11.918;2023-11-22T09:49:15;11.30;99.90
43049;DHT22;28673;44.412;11.918;2023-11-22T09:51:47;11.30;99.90
43049;DHT22;28673;44.412;11.918;2023-11-22T09:54:14;11.40;99.90
43049;DHT22;28673;44.412;11.918;2023-11-22T09:56:42;11.40;99.90
43049;DHT22;28673;44.412;11.918;2023-11-22T09:59:18;11.50;99.90
43049;DHT22;28673;44.412;11.918;2023-11-22T10:01:44;11.50;99.90
43049;DHT22;28673;44.412;11.918;2023-11-22T10:04:10;11.60;99.90
43049;DHT22;28673;44.412;11.918;2023-11-22T10:06:37;11.70;99.90
43049;DHT22;28673;44.412;11.918;2023-11-22T10:09:04;11.70;99.90
43049;DHT22;28673;44.412;11.918;2023-11-22T10:11:35;11.80;99.90
43049;DHT22;28673;44.412;11.918;2023-11-22T10:14:02;11.90;99.90
43049;DHT22;28673;44.412;11.918;2023-11-22T10:16:29;11.90;99.90
43049;DHT22;28673;44.412;11.918;2023-11-22T10:18:54;12.00;99.90
43049;DHT22;28673;44.412;11.918;2023-11-22T10:23:47;12.20;99.90
43049;DHT22;28673;44.412;11.918;2023-11-22T10:26:13;12.30;99.90
43049;DHT22;28673;44.412;11.918;2023-11-22T10:28:43;12.40;99.90
43049;DHT22;28673;44.412;11.918;2023-11-22T10:31:09;12.50;99.90
43049;DHT22;28673;44.412;11.918;2023-11-22T10:33:42;12.60;99.90
43049;DHT22;28673;44.412;11.918;2023-11-22T10:36:09;12.70;99.90
43049;DHT22;28673;44.412;11.918;2023-11-22T10:38:35;12.80;99.90
43049;DHT22;28673;44.412;11.918;2023-11-22T10:41:05;12.80;99.90
43049;DHT22;28673;44.412;11.918;2023-11-22T10:43:31;12.90;99.90
43049;DHT22;28673;44.412;11.918;2023-11-22T10:46:02;13.00;99.90
43049;DHT22;28673;44.412;11.918;2023-11-22T10:48:30;13.10;99.90
43049;DHT22;28673;44.412;11.918;2023-11-22T10:51:01;13.20;99.90
43049;DHT22;28673;44.412;11.918;2023-11-22T10:53:33;13.30;99.90
43049;DHT22;28673;44.412;11.918;2023-11-22T10:56:15;13.30;99.90
43049;DHT22;28673;44.412;11.918;2023-11-22T10:58:55;13.40;99.90
43049;DHT22;28673;44.412;11.918;2023-11-22T11:01:24;13.40;99.90
43049;DHT22;28673;44.412;11.918;2023-11-22T11:04:13;13.50;99.90
43049;DHT22;28673;44.412;11.918;2023-11-22T11:06:44;13.50;99.90
43049;DHT22;28673;44.412;11.918;2023-11-22T11:09:12;13.50;99.90
43049;DHT22;28673;44.412;11.918;2023-11-22T11:11:41;13.60;99.90
43049;DHT22;28673;44.412;11.918;2023-11-22T11:14:09;13.50;99.90
43049;DHT22;28673;44.412;11.918;2023-11-22T11:16:38;13.50;99.90
43049;DHT22;28673;44.412;11.918;2023-11-22T11:19:07;13.50;99.90
43049;DHT22;28673;44.412;11.918;2023-11-22T11:21:35;13.50;99.90
43049;DHT22;28673;44.412;11.918;2023-11-22T11:24:01;13.50;99.90
43049;DHT22;28673;44.412;11.918;2023-11-22T11:26:33;13.50;99.90
43049;DHT22;28673;44.412;11.918;2023-11-22T11:29:02;13.50;99.90
43049;DHT22;28673;44.412;11.918;2023-11-22T11:31:33;13.50;99.90
43049;DHT22;28673;44.412;11.918;2023-11-22T11:34:07;13.50;99.90
43049;DHT22;28673;44.412;11.918;2023-11-22T11:36:33;13.50;99.90
43049;DHT22;28673;44.412;11.918;2023-11-22T11:39:06;13.50;99.90
43049;DHT22;28673;44.412;11.918;2023-11-22T11:41:35;13.50;99.90
43049;DHT22;28673;44.412;11.918;2023-11-22T11:44:08;13.50;99.90
43049;DHT22;28673;44.412;11.918;2023-11-22T11:46:36;13.60;99.90
43049;DHT22;28673;44.412;11.918;2023-11-22T11:49:07;13.60;99.90
43049;DHT22;28673;44.412;11.918;2023-11-22T11:51:34;13.50;99.90
43049;DHT22;28673;44.412;11.918;2023-11-22T11:54:00;13.60;99.90
43049;DHT22;28673;44.412;11.918;2023-11-22T11:56:27;13.60;99.90
43049;DHT22;28673;44.412;11.918;2023-11-22T11:58:57;13.50;99.90
43049;DHT22;28673;44.412;11.918;2023-11-22T12:01:27;13.50;99.90
43049;DHT22;28673;44.412;11.918;2023-11-22T12:03:53;13.60;99.90
43049;DHT22;28673;44.412;11.918;2023-11-22T12:06:19;13.60;99.90
43049;DHT22;28673;44.412;11.918;2023-11-22T12:08:45;13.60;99.90
43049;DHT22;28673;44.412;11.918;2023-11-22T12:11:13;13.50;99.90
43049;DHT22;28673;44.412;11.918;2023-11-22T12:13:39;13.60;99.90
43049;DHT22;28673;44.412;11.918;2023-11-22T12:16:09;13.60;99.90
43049;DHT22;28673;44.412;11.918;2023-11-22T12:18:49;13.60;99.90
43049;DHT22;28673;44.412;11.918;2023-11-22T12:21:16;13.70;99.90
43049;DHT22;28673;44.412;11.918;2023-11-22T12:23:43;13.70;99.90
43049;DHT22;28673;44.412;11.918;2023-11-22T12:26:16;13.70;99.90
43049;DHT22;28673;44.412;11.918;2023-11-22T12:28:48;13.70;99.90
43049;DHT22;28673;44.412;11.918;2023-11-22T12:31:15;13.70;99.90
43049;DHT22;28673;44.412;11.918;2023-11-22T12:33:41;13.80;99.90
43049;DHT22;28673;44.412;11.918;2023-11-22T12:36:09;13.70;99.90
43049;DHT22;28673;44.412;11.918;2023-11-22T12:38:35;13.70;99.90
43049;DHT22;28673;44.412;11.918;2023-11-22T12:41:01;13.70;99.90
43049;DHT22;28673;44.412;11.918;2023-11-22T12:43:32;13.70;99.90
43049;DHT22;28673;44.412;11.918;2023-11-22T12:46:02;13.70;99.90
43049;DHT22;28673;44.412;11.918;2023-11-22T12:48:28;13.70;99.90
43049;DHT22;28673;44.412;11.918;2023-11-22T12:50:58;13.70;99.90
43049;DHT22;28673;44.412;11.918;2023-11-22T12:53:25;13.70;99.90
43049;DHT22;28673;44.412;11.918;2023-11-22T12:55:54;13.70;99.90
43049;DHT22;28673;44.412;11.918;2023-11-22T12:58:24;13.70;99.90
43049;DHT22;28673;44.412;11.918;2023-11-22T13:00:52;13.70;99.90
43049;DHT22;28673;44.412;11.918;2023-11-22T13:03:24;13.70;99.90
43049;DHT22;28673;44.412;11.918;2023-11-22T13:05:51;13.70;99.90
43049;DHT22;28673;44.412;11.918;2023-11-22T13:08:20;13.70;99.90
43049;DHT22;28673;44.412;11.918;2023-11-22T13:10:49;13.70;99.90
43049;DHT22;28673;44.412;11.918;2023-11-22T13:13:26;13.70;99.90
43049;DHT22;28673;44.412;11.918;2023-11-22T13:15:53;13.70;99.90
43049;DHT22;28673;44.412;11.918;2023-11-22T13:18:19;13.70;99.90
43049;DHT22;28673;44.412;11.918;2023-11-22T13:20:47;13.70;99.90
43049;DHT22;28673;44.412;11.918;2023-11-22T13:23:13;13.70;99.90
43049;DHT22;28673;44.412;11.918;2023-11-22T13:25:39;13.70;99.90
43049;DHT22;28673;44.412;11.918;2023-11-22T13:28:07;13.70;99.90
43049;DHT22;28673;44.412;11.918;2023-11-22T13:30:34;13.70;99.90
43049;DHT22;28673;44.412;11.918;2023-11-22T13:33:00;13.70;99.90
43049;DHT22;28673;44.412;11.918;2023-11-22T13:35:28;13.80;99.90
43049;DHT22;28673;44.412;11.918;2023-11-22T13:37:58;13.80;99.90
43049;DHT22;28673;44.412;11.918;2023-11-22T13:40:24;13.80;99.90
43049;DHT22;28673;44.412;11.918;2023-11-22T13:42:53;13.80;99.90
43049;DHT22;28673;44.412;11.918;2023-11-22T13:45:19;13.80;99.90
43049;DHT22;28673;44.412;11.918;2023-11-22T13:47:46;13.90;99.90
43049;DHT22;28673;44.412;11.918;2023-11-22T13:50:14;13.90;99.90
43049;DHT22;28673;44.412;11.918;2023-11-22T13:52:50;14.00;99.90
43049;DHT22;28673;44.412;11.918;2023-11-22T13:55:17;14.00;99.90
43049;DHT22;28673;44.412;11.918;2023-11-22T13:57:57;14.00;99.90
43049;DHT22;28673;44.412;11.918;2023-11-22T14:00:25;14.00;99.90
43049;DHT22;28673;44.412;11.918;2023-11-22T14:02:54;14.00;99.90
43049;DHT22;28673;44.412;11.918;2023-11-22T14:05:24;14.00;99.90
43049;DHT22;28673;44.412;11.918;2023-11-22T14:07:50;14.00;99.90
43049;DHT22;28673;44.412;11.918;2023-11-22T14:10:17;14.00;99.90
43049;DHT22;28673;44.412;11.918;2023-11-22T14:12:44;14.00;99.90
43049;DHT22;28673;44.412;11.918;2023-11-22T14:15:11;14.00;99.90
43049;DHT22;28673;44.412;11.918;2023-11-22T14:17:37;14.00;99.90
43049;DHT22;28673;44.412;11.918;2023-11-22T14:20:10;14.00;99.90
43049;DHT22;28673;44.412;11.918;2023-11-22T14:22:37;13.90;99.90
43049;DHT22;28673;44.412;11.918;2023-11-22T14:25:05;13.90;99.90
43049;DHT22;28673;44.412;11.918;2023-11-22T14:27:38;13.80;99.90
43049;DHT22;28673;44.412;11.918;2023-11-22T14:30:05;13.80;99.90
43049;DHT22;28673;44.412;11.918;2023-11-22T14:32:32;13.70;99.90
43049;DHT22;28673;44.412;11.918;2023-11-22T14:35:03;13.60;99.90
43049;DHT22;28673;44.412;11.918;2023-11-22T14:37:28;13.60;99.90
43049;DHT22;28673;44.412;11.918;2023-11-22T14:39:56;13.60;99.90
43049;DHT22;28673;44.412;11.918;2023-11-22T14:42:22;13.50;99.90
43049;DHT22;28673;44.412;11.918;2023-11-22T14:44:50;13.50;99.90
43049;DHT22;28673;44.412;11.918;2023-11-22T14:47:17;13.50;99.90
43049;DHT22;28673;44.412;11.918;2023-11-22T14:49:52;13.40;99.90
43049;DHT22;28673;44.412;11.918;2023-11-22T14:52:19;13.40;99.90
43049;DHT22;28673;44.412;11.918;2023-11-22T14:54:46;13.40;99.90
43049;DHT22;28673;44.412;11.918;2023-11-22T14:57:13;13.40;99.90
43049;DHT22;28673;44.412;11.918;2023-11-22T14:59:39;13.30;99.90
43049;DHT22;28673;44.412;11.918;2023-11-22T15:02:07;13.30;99.90
43049;DHT22;28673;44.412;11.918;2023-11-22T15:04:37;13.30;99.90
43049;DHT22;28673;44.412;11.918;2023-11-22T15:07:06;13.30;99.90
43049;DHT22;28673;44.412;11.918;2023-11-22T15:09:33;13.30;99.90
43049;DHT22;28673;44.412;11.918;2023-11-22T15:11:59;13.30;99.90
43049;DHT22;28673;44.412;11.918;2023-11-22T15:14:29;13.30;99.90
43049;DHT22;28673;44.412;11.918;2023-11-22T15:16:55;13.30;99.90
43049;DHT22;28673;44.412;11.918;2023-11-22T15:19:21;13.30;99.90
43049;DHT22;28673;44.412;11.918;2023-11-22T15:21:51;13.20;99.90
43049;DHT22;28673;44.412;11.918;2023-11-22T15:24:18;13.20;99.90